TLPC/SLU METAR and TAF weather

Enter ICAO airport designator
Station Type Date Time Source
TLPC METAR 2021/01/22 00:00 UTC NOAA

TLPC 220000Z 12003KT 9999 FEW022 25/22 Q1014 NOSIG


Station Type Date Time Source
TLPC Decoded METAR 2021/01/22 00:00 UTC NOAA

Vigie, Saint Lucia (TLPC) 14-01N 061-00W 2M
Jan 21, 2021 - 07:00 PM EST / 2021.01.22 0000 UTC
Wind: from the ESE (120 degrees) at 3 MPH (3 KT):0
Visibility: greater than 7 mile(s):0
Sky conditions: mostly clear
Temperature: 77 F (25 C)
Dew Point: 71 F (22 C)
Relative Humidity: 83%
Pressure (altimeter): 29.94 in. Hg (1014 hPa)
ob: TLPC 220000Z 12003KT 9999 FEW022 25/22 Q1014 NOSIG
cycle: 0

Station Type Date Time Source
TLPC TAF 2021/01/22 06:03 UTC NOAA

TAF TLPC 220500Z 2206/2306 09007KT 9999 SCT022
TEMPO 2206/2215 5000 SHRA FEW015TCU BKN018 BKN040

Example: see airport list